Time;durP1;ratioP1;P1;durP2;ratioP2;P2;SDS_P1;SDS_P2;PMS_P1;PMS_P2;Temp;Humidity;BMP_temperature;BMP_pressure;BME280_temperature;BME280_humidity;BME280_pressure;Samples;Min_cycle;Max_cycle;Signal;HPM_P1;HPM_P2
2022/11/07 00:02:04;;;;;;;9.57;3.13;;;;;;;;;;4977111;28;20043;-74
2022/11/07 00:04:30;;;;;;;10.32;3.15;;;;;;;;;;4970979;28;20019;-75
2022/11/07 00:06:57;;;;;;;8.75;3.38;;;;;;;;;;4969624;28;20035;-77
2022/11/07 00:09:23;;;;;;;7.03;3.40;;;;;;;;;;4975172;28;20048;-74
2022/11/07 00:11:49;;;;;;;8.38;2.95;;;;;;;;;;4975149;28;20034;-76
2022/11/07 00:14:16;;;;;;;6.60;2.80;;;;;;;;;;4969115;28;20673;-74
2022/11/07 00:16:43;;;;;;;11.07;3.83;;;;;;;;;;4984719;28;20027;-76
2022/11/07 00:19:09;;;;;;;7.53;3.00;;;;;;;;;;4972982;28;20026;-74
2022/11/07 00:21:37;;;;;;;9.00;2.90;;;;;;;;;;4982538;28;20457;-76
2022/11/07 00:24:03;;;;;;;10.40;3.28;;;;;;;;;;4968663;28;20038;-75
2022/11/07 00:26:29;;;;;;;12.45;3.17;;;;;;;;;;4966602;28;20061;-74
2022/11/07 00:28:55;;;;;;;11.35;3.20;;;;;;;;;;4972704;28;20030;-75
2022/11/07 00:31:21;;;;;;;9.77;2.58;;;;;;;;;;4981791;28;20118;-74
2022/11/07 00:33:47;;;;;;;6.63;2.92;;;;;;;;;;4985534;28;20067;-74
2022/11/07 00:36:21;;;;;;;11.50;3.08;;;;;;;;;;4971545;28;20601;-74
2022/11/07 00:38:47;;;;;;;7.32;3.05;;;;;;;;;;4977133;28;20062;-75
2022/11/07 00:41:14;;;;;;;11.55;3.25;;;;;;;;;;4970140;28;20507;-75
2022/11/07 00:43:40;;;;;;;10.68;3.38;;;;;;;;;;4983807;28;20030;-74
2022/11/07 00:46:07;;;;;;;8.05;3.17;;;;;;;;;;4973426;28;20023;-75
2022/11/07 00:48:33;;;;;;;11.95;3.00;;;;;;;;;;4971731;28;20027;-75
2022/11/07 00:51:11;;;;;;;8.73;3.10;;;;;;;;;;4979819;28;20852;-75
2022/11/07 00:53:37;;;;;;;12.18;3.28;;;;;;;;;;4978777;28;20027;-75
2022/11/07 00:56:04;;;;;;;13.32;4.03;;;;;;;;;;4985195;28;20031;-73
2022/11/07 00:58:31;;;;;;;6.80;3.00;;;;;;;;;;4973737;28;20031;-74
2022/11/07 01:00:57;;;;;;;7.95;2.97;;;;;;;;;;4969604;28;20042;-75
2022/11/07 01:06:09;;;;;;;9.57;2.75;;;;;;;;;;4969731;28;21117;-77
2022/11/07 01:08:35;;;;;;;10.25;3.53;;;;;;;;;;4985327;28;20154;-75
2022/11/07 01:11:04;;;;;;;9.00;3.40;;;;;;;;;;4977063;28;20027;-76
2022/11/07 01:13:30;;;;;;;11.10;2.70;;;;;;;;;;4974649;28;20026;-74
2022/11/07 01:15:57;;;;;;;10.57;2.70;;;;;;;;;;4971782;28;20519;-74
2022/11/07 01:18:23;;;;;;;12.43;3.47;;;;;;;;;;4954105;28;20031;-77
2022/11/07 01:20:49;;;;;;;8.75;2.83;;;;;;;;;;4974600;28;20030;-75
2022/11/07 01:23:15;;;;;;;18.48;5.13;;;;;;;;;;4972507;28;20027;-74
2022/11/07 01:25:41;;;;;;;7.88;3.97;;;;;;;;;;4973698;28;20451;-75
2022/11/07 01:28:08;;;;;;;15.30;3.35;;;;;;;;;;4988667;28;20456;-78
2022/11/07 01:30:38;;;;;;;8.38;3.78;;;;;;;;;;4982963;28;20453;-74
2022/11/07 01:33:04;;;;;;;9.45;3.85;;;;;;;;;;4969855;28;20019;-78
2022/11/07 01:35:31;;;;;;;7.47;3.50;;;;;;;;;;4974395;28;20384;-74
2022/11/07 01:37:58;;;;;;;13.45;3.10;;;;;;;;;;4983395;28;20040;-75
2022/11/07 01:40:24;;;;;;;7.40;2.60;;;;;;;;;;4970900;28;20020;-75
2022/11/07 01:42:50;;;;;;;13.45;3.63;;;;;;;;;;4967862;28;20027;-75
2022/11/07 01:45:21;;;;;;;8.18;3.20;;;;;;;;;;4970766;28;20025;-74
2022/11/07 01:47:48;;;;;;;8.15;2.80;;;;;;;;;;4972550;28;20061;-74
2022/11/07 01:50:14;;;;;;;8.05;3.53;;;;;;;;;;4968527;28;20468;-75
2022/11/07 01:52:43;;;;;;;12.35;4.05;;;;;;;;;;4972663;28;20026;-77
2022/11/07 01:55:23;;;;;;;8.77;3.88;;;;;;;;;;4963442;28;20042;-74
2022/11/07 01:57:57;;;;;;;12.20;3.08;;;;;;;;;;4978791;28;20066;-74
2022/11/07 02:00:23;;;;;;;14.90;2.95;;;;;;;;;;4973070;28;20491;-75
2022/11/07 02:02:55;;;;;;;16.00;3.75;;;;;;;;;;4971196;28;20030;-76
2022/11/07 02:05:24;;;;;;;12.45;2.90;;;;;;;;;;4976362;28;20035;-77
2022/11/07 02:07:50;;;;;;;9.70;3.80;;;;;;;;;;4973427;28;20035;-76
2022/11/07 02:10:18;;;;;;;13.48;4.20;;;;;;;;;;4970933;28;20055;-75
2022/11/07 02:12:45;;;;;;;8.88;3.67;;;;;;;;;;4966732;28;20027;-75
2022/11/07 02:15:11;;;;;;;12.80;3.63;;;;;;;;;;4972045;28;20081;-78
2022/11/07 02:17:37;;;;;;;10.68;3.92;;;;;;;;;;4959885;28;20448;-74
2022/11/07 02:20:04;;;;;;;14.63;4.15;;;;;;;;;;4982801;28;20419;-74
2022/11/07 02:22:40;;;;;;;15.18;3.97;;;;;;;;;;4962643;28;20023;-75
2022/11/07 02:25:08;;;;;;;12.02;3.88;;;;;;;;;;4969190;28;20023;-76
2022/11/07 02:27:35;;;;;;;17.27;5.10;;;;;;;;;;4961439;28;20031;-75
2022/11/07 02:30:06;;;;;;;15.25;4.20;;;;;;;;;;4972082;28;20062;-75
2022/11/07 02:32:32;;;;;;;19.98;4.20;;;;;;;;;;4971250;28;20030;-76
2022/11/07 02:35:00;;;;;;;15.30;4.28;;;;;;;;;;4966593;28;20677;-75
2022/11/07 02:37:29;;;;;;;10.98;4.22;;;;;;;;;;4958999;28;20472;-74
2022/11/07 02:39:56;;;;;;;13.75;4.18;;;;;;;;;;4973484;28;20022;-75
2022/11/07 02:42:22;;;;;;;12.80;5.18;;;;;;;;;;4973766;28;20444;-74
2022/11/07 02:44:49;;;;;;;17.13;3.78;;;;;;;;;;4964453;28;20395;-73
2022/11/07 02:47:15;;;;;;;25.52;5.60;;;;;;;;;;4969957;28;20151;-74
2022/11/07 02:49:41;;;;;;;14.25;3.33;;;;;;;;;;4968256;28;20391;-75
2022/11/07 02:52:07;;;;;;;14.82;4.40;;;;;;;;;;4971411;28;20073;-74
2022/11/07 02:54:34;;;;;;;14.85;3.95;;;;;;;;;;4970881;28;20019;-74
2022/11/07 02:57:00;;;;;;;19.45;5.32;;;;;;;;;;4984531;28;20034;-76
2022/11/07 02:59:26;;;;;;;18.30;5.18;;;;;;;;;;4986380;28;20030;-76
2022/11/07 03:01:52;;;;;;;9.85;3.45;;;;;;;;;;4972963;28;20057;-75
2022/11/07 03:04:18;;;;;;;24.48;4.82;;;;;;;;;;4971851;28;20030;-75
2022/11/07 03:06:44;;;;;;;19.48;4.15;;;;;;;;;;4977391;28;20384;-75
2022/11/07 03:09:10;;;;;;;14.27;4.97;;;;;;;;;;4969477;28;20053;-75
2022/11/07 03:11:36;;;;;;;16.80;4.20;;;;;;;;;;4967957;28;20023;-74
2022/11/07 03:14:02;;;;;;;19.95;4.75;;;;;;;;;;4972940;28;20075;-75
2022/11/07 03:16:28;;;;;;;11.23;3.67;;;;;;;;;;4971539;28;20442;-78
2022/11/07 03:18:54;;;;;;;19.90;3.90;;;;;;;;;;4974288;28;20032;-74
2022/11/07 03:21:21;;;;;;;15.95;3.58;;;;;;;;;;4979218;28;20595;-78
2022/11/07 03:23:47;;;;;;;11.90;3.78;;;;;;;;;;4966454;28;20035;-75
2022/11/07 03:26:13;;;;;;;12.52;4.43;;;;;;;;;;4977644;28;20121;-76
2022/11/07 03:28:39;;;;;;;14.93;3.75;;;;;;;;;;4968567;28;20034;-75
2022/11/07 03:31:05;;;;;;;15.98;4.78;;;;;;;;;;4977318;28;20088;-77
2022/11/07 03:33:32;;;;;;;18.65;5.63;;;;;;;;;;4957541;28;20026;-74
2022/11/07 03:35:58;;;;;;;16.25;3.30;;;;;;;;;;4970261;28;20038;-78
2022/11/07 03:38:24;;;;;;;17.17;4.95;;;;;;;;;;4979390;28;20042;-74
2022/11/07 03:40:50;;;;;;;13.27;3.80;;;;;;;;;;4971358;28;20042;-74
2022/11/07 03:43:16;;;;;;;11.05;4.50;;;;;;;;;;4970377;28;20089;-75
2022/11/07 03:45:42;;;;;;;12.10;4.40;;;;;;;;;;4972290;28;20026;-74
2022/11/07 03:48:08;;;;;;;9.52;3.63;;;;;;;;;;4969778;28;20046;-74
2022/11/07 03:50:34;;;;;;;10.07;3.13;;;;;;;;;;4979726;28;20031;-74
2022/11/07 03:53:00;;;;;;;16.13;4.63;;;;;;;;;;4989346;28;20011;-74
2022/11/07 03:55:26;;;;;;;11.13;4.03;;;;;;;;;;4963405;28;20033;-78
2022/11/07 03:57:54;;;;;;;11.65;3.83;;;;;;;;;;4980945;28;20022;-74
2022/11/07 04:00:20;;;;;;;14.13;4.40;;;;;;;;;;4978140;28;20030;-74
2022/11/07 04:02:46;;;;;;;9.95;3.67;;;;;;;;;;4959279;28;20031;-75
2022/11/07 04:05:12;;;;;;;13.73;3.58;;;;;;;;;;4965191;28;20625;-74
2022/11/07 04:07:39;;;;;;;13.52;3.15;;;;;;;;;;4983198;28;20018;-74
2022/11/07 04:10:05;;;;;;;13.68;3.90;;;;;;;;;;4971209;28;20047;-77
2022/11/07 04:18:01;;;;;;;8.98;3.10;;;;;;;;;;4975953;28;20344;-77
2022/11/07 04:20:27;;;;;;;13.10;2.97;;;;;;;;;;4974147;28;20031;-74
2022/11/07 04:22:53;;;;;;;10.38;3.40;;;;;;;;;;4973317;28;20027;-74
2022/11/07 04:27:41;;;;;;;13.20;3.58;;;;;;;;;;4974304;28;20043;-76
2022/11/07 04:28:06;;;;;;;12.55;3.58;;;;;;;;;;4965060;28;21606;-77
2022/11/07 04:30:32;;;;;;;13.82;3.90;;;;;;;;;;4976673;28;20038;-75
2022/11/07 04:32:59;;;;;;;10.18;5.35;;;;;;;;;;4972362;28;20039;-73
2022/11/07 04:35:26;;;;;;;8.38;3.63;;;;;;;;;;4974176;28;20371;-75
2022/11/07 04:37:52;;;;;;;12.35;3.60;;;;;;;;;;4974966;28;20018;-75
2022/11/07 04:40:18;;;;;;;9.65;4.65;;;;;;;;;;4980275;28;20036;-74
2022/11/07 04:42:45;;;;;;;12.43;3.22;;;;;;;;;;4986116;28;20377;-75
2022/11/07 04:45:12;;;;;;;13.82;3.88;;;;;;;;;;4994748;28;20018;-75
2022/11/07 04:47:38;;;;;;;11.18;3.35;;;;;;;;;;4984775;28;20042;-74
2022/11/07 04:50:05;;;;;;;18.65;3.97;;;;;;;;;;4972238;28;20023;-75
2022/11/07 04:52:31;;;;;;;11.13;3.78;;;;;;;;;;4982497;28;20487;-74
2022/11/07 04:54:57;;;;;;;22.88;5.30;;;;;;;;;;4981296;28;20256;-74
2022/11/07 04:57:23;;;;;;;19.10;5.45;;;;;;;;;;4975050;28;20041;-74
2022/11/07 04:59:49;;;;;;;14.90;5.07;;;;;;;;;;4971034;28;20031;-74
2022/11/07 05:02:15;;;;;;;14.02;4.60;;;;;;;;;;4973097;28;20039;-75
2022/11/07 05:04:41;;;;;;;14.45;3.70;;;;;;;;;;4976772;28;20030;-75
2022/11/07 05:07:08;;;;;;;16.45;5.53;;;;;;;;;;4983952;28;20035;-78
2022/11/07 05:09:34;;;;;;;16.67;4.53;;;;;;;;;;4974710;28;20038;-74
2022/11/07 05:12:01;;;;;;;15.25;4.70;;;;;;;;;;4969237;28;20502;-76
2022/11/07 05:14:29;;;;;;;12.82;4.40;;;;;;;;;;4978545;28;20419;-75
2022/11/07 05:16:56;;;;;;;15.75;4.72;;;;;;;;;;4971068;28;20110;-75
2022/11/07 05:19:22;;;;;;;21.95;5.43;;;;;;;;;;4969329;28;20022;-75
2022/11/07 05:23:11;;;;;;;15.45;4.53;;;;;;;;;;4976290;28;20022;-74
2022/11/07 05:24:34;;;;;;;11.45;4.35;;;;;;;;;;4984040;28;20030;-75
2022/11/07 05:27:00;;;;;;;22.67;6.05;;;;;;;;;;4973895;28;20033;-74
2022/11/07 05:29:26;;;;;;;16.05;5.30;;;;;;;;;;4967661;28;20050;-76
2022/11/07 05:31:53;;;;;;;18.42;4.68;;;;;;;;;;4974055;28;20019;-74
2022/11/07 05:34:19;;;;;;;17.58;4.40;;;;;;;;;;4978139;28;20360;-74
2022/11/07 05:36:45;;;;;;;20.55;5.22;;;;;;;;;;4978382;28;20070;-75
2022/11/07 05:39:11;;;;;;;14.43;4.93;;;;;;;;;;4984172;28;20034;-74
2022/11/07 05:41:37;;;;;;;14.05;4.80;;;;;;;;;;4965279;28;20050;-75
2022/11/07 05:44:03;;;;;;;13.77;5.28;;;;;;;;;;4968535;28;20034;-75
2022/11/07 05:46:29;;;;;;;16.40;5.85;;;;;;;;;;4969292;28;20524;-73
2022/11/07 05:48:55;;;;;;;17.40;4.53;;;;;;;;;;4982820;28;20170;-76
2022/11/07 05:51:21;;;;;;;14.98;5.15;;;;;;;;;;4970258;28;20031;-76
2022/11/07 05:53:47;;;;;;;16.75;6.20;;;;;;;;;;4969557;28;20499;-74
2022/11/07 05:56:14;;;;;;;22.88;5.55;;;;;;;;;;4971716;28;20043;-74
2022/11/07 05:58:40;;;;;;;15.38;5.65;;;;;;;;;;4970997;28;20431;-77
2022/11/07 06:01:06;;;;;;;19.25;5.55;;;;;;;;;;4966198;28;20586;-75
2022/11/07 06:03:33;;;;;;;21.40;5.55;;;;;;;;;;4964977;28;20032;-75
2022/11/07 06:05:59;;;;;;;19.73;4.47;;;;;;;;;;4980965;28;20457;-74
2022/11/07 06:08:25;;;;;;;26.55;7.22;;;;;;;;;;4983593;28;20065;-74
2022/11/07 06:10:51;;;;;;;16.75;6.05;;;;;;;;;;4986442;28;20054;-74
2022/11/07 06:13:17;;;;;;;19.45;5.82;;;;;;;;;;4970618;28;20022;-76
2022/11/07 06:15:44;;;;;;;20.77;5.22;;;;;;;;;;4969189;28;20073;-74
2022/11/07 06:18:20;;;;;;;16.65;5.50;;;;;;;;;;4971582;28;20035;-75
2022/11/07 06:20:46;;;;;;;17.25;6.60;;;;;;;;;;4971354;28;20023;-75
2022/11/07 06:23:12;;;;;;;19.02;4.35;;;;;;;;;;4966777;28;20038;-77
2022/11/07 06:25:39;;;;;;;19.52;5.88;;;;;;;;;;4965960;28;20026;-75
2022/11/07 06:28:06;;;;;;;21.65;5.28;;;;;;;;;;4985104;28;20023;-74
2022/11/07 06:30:33;;;;;;;15.77;4.72;;;;;;;;;;4986333;28;20026;-78
2022/11/07 06:33:03;;;;;;;14.35;4.65;;;;;;;;;;4977795;28;20019;-75
2022/11/07 06:35:29;;;;;;;21.48;5.82;;;;;;;;;;4964187;28;20023;-76
2022/11/07 06:37:55;;;;;;;16.75;4.72;;;;;;;;;;4982093;28;20061;-75
2022/11/07 06:40:22;;;;;;;23.60;5.10;;;;;;;;;;4965035;28;20033;-74
2022/11/07 06:42:48;;;;;;;11.00;4.78;;;;;;;;;;4978092;28;20062;-74
2022/11/07 06:45:14;;;;;;;17.25;3.80;;;;;;;;;;4964413;28;20050;-74
2022/11/07 06:47:40;;;;;;;13.75;3.17;;;;;;;;;;4968890;28;20039;-74
2022/11/07 06:50:06;;;;;;;13.93;4.20;;;;;;;;;;4978505;28;20092;-75
2022/11/07 06:52:32;;;;;;;10.20;3.67;;;;;;;;;;4967066;28;20507;-78
2022/11/07 06:54:58;;;;;;;13.85;4.03;;;;;;;;;;4966178;28;20034;-74
2022/11/07 06:57:24;;;;;;;14.43;4.85;;;;;;;;;;4982122;28;20512;-74
2022/11/07 06:59:51;;;;;;;10.32;3.58;;;;;;;;;;4976473;28;20073;-74
2022/11/07 07:02:17;;;;;;;9.27;3.25;;;;;;;;;;4984986;28;20038;-76
2022/11/07 07:04:43;;;;;;;11.43;4.15;;;;;;;;;;4981009;28;20042;-74
2022/11/07 07:07:09;;;;;;;19.77;4.88;;;;;;;;;;4965801;28;20129;-74
2022/11/07 07:09:35;;;;;;;16.13;4.15;;;;;;;;;;4970386;28;20484;-75
2022/11/07 07:12:01;;;;;;;15.00;4.55;;;;;;;;;;4969005;28;20041;-75
2022/11/07 07:14:27;;;;;;;13.45;4.70;;;;;;;;;;4971725;28;20027;-74
2022/11/07 07:16:53;;;;;;;10.57;4.05;;;;;;;;;;4963373;28;20488;-75
2022/11/07 07:19:19;;;;;;;16.52;4.60;;;;;;;;;;4970125;28;20030;-74
2022/11/07 07:21:45;;;;;;;17.05;4.53;;;;;;;;;;4966646;28;20501;-73
2022/11/07 07:24:12;;;;;;;15.73;4.00;;;;;;;;;;4980712;28;20033;-74
2022/11/07 07:26:38;;;;;;;21.55;7.90;;;;;;;;;;4964121;28;20039;-78
2022/11/07 07:29:04;;;;;;;21.52;6.93;;;;;;;;;;4978616;28;20034;-73
2022/11/07 07:31:31;;;;;;;21.35;5.80;;;;;;;;;;4971575;28;20444;-75
2022/11/07 07:33:58;;;;;;;20.55;5.47;;;;;;;;;;4980406;28;20027;-76
2022/11/07 07:36:24;;;;;;;22.23;6.60;;;;;;;;;;4966583;28;20033;-75
2022/11/07 07:38:51;;;;;;;19.55;5.05;;;;;;;;;;4970651;28;20114;-77
2022/11/07 07:41:18;;;;;;;17.92;4.72;;;;;;;;;;4980388;28;20455;-73
2022/11/07 07:43:44;;;;;;;14.95;6.18;;;;;;;;;;4969679;28;20031;-76
2022/11/07 07:46:13;;;;;;;18.92;4.22;;;;;;;;;;4966162;28;20506;-74
2022/11/07 07:48:39;;;;;;;17.80;5.32;;;;;;;;;;4972012;28;20034;-74
2022/11/07 07:51:06;;;;;;;23.27;6.22;;;;;;;;;;4971169;28;20035;-74
2022/11/07 07:53:32;;;;;;;20.55;6.35;;;;;;;;;;4982790;28;20734;-74
2022/11/07 07:55:58;;;;;;;24.20;5.38;;;;;;;;;;4965970;28;20066;-75
2022/11/07 07:58:27;;;;;;;15.10;5.25;;;;;;;;;;4973284;28;20054;-76
2022/11/07 08:00:56;;;;;;;16.85;5.07;;;;;;;;;;4963899;28;20093;-77
2022/11/07 08:03:23;;;;;;;20.85;5.05;;;;;;;;;;4969417;28;20031;-76
2022/11/07 08:05:52;;;;;;;18.27;5.38;;;;;;;;;;4970441;28;20043;-74
2022/11/07 08:08:18;;;;;;;19.00;5.60;;;;;;;;;;4968320;28;20038;-78
2022/11/07 08:10:45;;;;;;;22.23;5.22;;;;;;;;;;4969406;28;20364;-74
2022/11/07 08:13:11;;;;;;;22.08;5.72;;;;;;;;;;4975821;28;20192;-73
2022/11/07 08:15:37;;;;;;;17.30;5.18;;;;;;;;;;4970212;28;20432;-74
2022/11/07 08:18:04;;;;;;;14.27;5.28;;;;;;;;;;4966769;28;20038;-74
2022/11/07 08:20:30;;;;;;;20.95;6.05;;;;;;;;;;4968865;28;20025;-74
2022/11/07 08:23:00;;;;;;;19.10;5.82;;;;;;;;;;4982232;28;20058;-74
2022/11/07 08:25:26;;;;;;;20.70;6.70;;;;;;;;;;4969538;28;20494;-76
2022/11/07 08:27:53;;;;;;;15.20;4.97;;;;;;;;;;4971307;28;20038;-77
2022/11/07 08:30:19;;;;;;;18.13;5.13;;;;;;;;;;4981640;28;20019;-75
2022/11/07 08:32:46;;;;;;;14.27;5.45;;;;;;;;;;4982487;28;20078;-77
2022/11/07 08:35:13;;;;;;;19.52;6.00;;;;;;;;;;4965490;28;20034;-75
2022/11/07 08:37:39;;;;;;;19.08;5.20;;;;;;;;;;4967636;28;20038;-74
2022/11/07 08:40:06;;;;;;;21.15;4.60;;;;;;;;;;4971936;28;20027;-75
2022/11/07 08:42:32;;;;;;;13.77;3.67;;;;;;;;;;4983830;28;20058;-74
2022/11/07 08:44:58;;;;;;;15.27;5.43;;;;;;;;;;4983696;28;20031;-77
2022/11/07 08:47:25;;;;;;;14.68;4.65;;;;;;;;;;4979065;28;20412;-78
2022/11/07 08:49:54;;;;;;;12.60;4.90;;;;;;;;;;4968181;28;20022;-74
2022/11/07 08:52:23;;;;;;;11.52;4.05;;;;;;;;;;4967659;28;20583;-77
2022/11/07 08:54:51;;;;;;;17.80;4.88;;;;;;;;;;4982466;28;20056;-76
2022/11/07 08:57:17;;;;;;;20.17;5.72;;;;;;;;;;4968306;28;20917;-75
2022/11/07 08:59:43;;;;;;;16.77;5.35;;;;;;;;;;4966235;28;20077;-76
2022/11/07 09:02:11;;;;;;;15.30;5.32;;;;;;;;;;4964907;28;20031;-74
2022/11/07 09:04:38;;;;;;;12.77;5.53;;;;;;;;;;4969373;28;20555;-76
2022/11/07 09:07:05;;;;;;;16.45;5.38;;;;;;;;;;4981258;28;20058;-74
2022/11/07 09:09:31;;;;;;;18.67;5.75;;;;;;;;;;4969276;28;20110;-75
2022/11/07 09:11:57;;;;;;;13.25;4.25;;;;;;;;;;4970589;28;20026;-78
2022/11/07 09:14:23;;;;;;;15.85;4.32;;;;;;;;;;4970773;28;20033;-79
2022/11/07 09:16:49;;;;;;;15.68;5.07;;;;;;;;;;4967061;28;20053;-75
2022/11/07 09:19:15;;;;;;;14.45;4.70;;;;;;;;;;4969577;28;20094;-75
2022/11/07 09:21:44;;;;;;;13.40;5.30;;;;;;;;;;4970001;28;20035;-74
2022/11/07 09:24:10;;;;;;;10.90;4.50;;;;;;;;;;4967831;28;20715;-75
2022/11/07 09:26:36;;;;;;;17.23;4.18;;;;;;;;;;4969981;28;20030;-75
2022/11/07 09:29:03;;;;;;;16.00;6.57;;;;;;;;;;4969559;28;20042;-75
2022/11/07 09:31:29;;;;;;;10.75;3.55;;;;;;;;;;4968439;28;20448;-75
2022/11/07 09:33:55;;;;;;;14.35;3.72;;;;;;;;;;4969207;28;20034;-76
2022/11/07 09:36:23;;;;;;;9.98;3.80;;;;;;;;;;4980754;28;20429;-75
2022/11/07 09:38:49;;;;;;;10.30;4.50;;;;;;;;;;4987110;28;20121;-78
2022/11/07 09:41:24;;;;;;;12.85;4.97;;;;;;;;;;4970210;28;20038;-74
2022/11/07 09:44:16;;;;;;;16.95;5.15;;;;;;;;;;4981846;28;20061;-78
2022/11/07 09:46:57;;;;;;;13.27;4.65;;;;;;;;;;4963905;28;20050;-74
2022/11/07 09:49:23;;;;;;;13.52;5.30;;;;;;;;;;4968468;28;20559;-78
2022/11/07 09:51:51;;;;;;;22.55;5.97;;;;;;;;;;4967864;28;20037;-75
2022/11/07 09:54:23;;;;;;;21.42;6.60;;;;;;;;;;4968741;28;20756;-75
2022/11/07 09:56:50;;;;;;;19.83;5.05;;;;;;;;;;4966073;28;20622;-75
2022/11/07 09:59:29;;;;;;;17.55;4.97;;;;;;;;;;4964967;28;20041;-75
2022/11/07 10:01:55;;;;;;;18.98;6.05;;;;;;;;;;4980606;28;20038;-75
2022/11/07 10:04:22;;;;;;;12.70;5.47;;;;;;;;;;4966452;28;20173;-73
2022/11/07 10:07:16;;;;;;;18.30;4.97;;;;;;;;;;4968169;28;20042;-78
2022/11/07 10:09:45;;;;;;;14.63;5.00;;;;;;;;;;4965542;28;20100;-76
2022/11/07 10:12:21;;;;;;;15.02;4.30;;;;;;;;;;4966214;28;20105;-75
2022/11/07 10:14:50;;;;;;;18.02;6.22;;;;;;;;;;4967054;28;20023;-74
2022/11/07 10:17:25;;;;;;;26.13;6.03;;;;;;;;;;4966420;28;20038;-73
2022/11/07 10:20:08;;;;;;;15.20;4.15;;;;;;;;;;4967804;28;20023;-74
2022/11/07 10:22:37;;;;;;;27.83;4.97;;;;;;;;;;4966365;28;20041;-74
2022/11/07 10:25:07;;;;;;;16.98;5.82;;;;;;;;;;4966605;28;20158;-74
2022/11/07 10:27:34;;;;;;;17.80;5.45;;;;;;;;;;4968369;28;20069;-74
2022/11/07 10:30:01;;;;;;;17.45;4.43;;;;;;;;;;4969462;28;20575;-78
2022/11/07 10:32:35;;;;;;;17.55;4.47;;;;;;;;;;4981936;28;20019;-74
2022/11/07 10:35:23;;;;;;;19.65;5.22;;;;;;;;;;4966712;28;20368;-74
2022/11/07 10:38:00;;;;;;;19.70;5.18;;;;;;;;;;4981698;28;20093;-74
2022/11/07 10:40:32;;;;;;;18.25;5.50;;;;;;;;;;4981058;28;20050;-77
2022/11/07 10:42:59;;;;;;;18.35;4.40;;;;;;;;;;4966763;28;20093;-74
2022/11/07 10:45:27;;;;;;;16.77;4.75;;;;;;;;;;4965671;28;20117;-75
2022/11/07 10:48:02;;;;;;;18.95;5.13;;;;;;;;;;4982968;28;20027;-73
2022/11/07 10:50:28;;;;;;;18.07;5.80;;;;;;;;;;4981361;28;20133;-75
2022/11/07 10:53:08;;;;;;;21.83;5.70;;;;;;;;;;4963151;28;20029;-75
2022/11/07 10:55:42;;;;;;;19.95;6.43;;;;;;;;;;4964846;28;20137;-74
2022/11/07 10:58:15;;;;;;;19.88;5.22;;;;;;;;;;4981633;28;20065;-78
2022/11/07 11:00:43;;;;;;;18.75;4.88;;;;;;;;;;4967318;28;20383;-78
2022/11/07 11:03:16;;;;;;;14.75;4.75;;;;;;;;;;4965246;28;20093;-77
2022/11/07 11:05:45;;;;;;;16.75;4.90;;;;;;;;;;4966733;28;20050;-74
2022/11/07 11:08:15;;;;;;;17.60;5.35;;;;;;;;;;4966666;28;20019;-73
2022/11/07 11:10:42;;;;;;;24.45;5.85;;;;;;;;;;4966877;28;20463;-77
2022/11/07 11:13:24;;;;;;;21.08;5.82;;;;;;;;;;4981479;28;20054;-74
2022/11/07 11:15:51;;;;;;;14.40;4.90;;;;;;;;;;4965013;28;20113;-74
2022/11/07 11:18:17;;;;;;;23.42;6.80;;;;;;;;;;4980814;28;20023;-75
2022/11/07 11:20:46;;;;;;;12.30;4.78;;;;;;;;;;4966456;28;20062;-73
2022/11/07 11:23:23;;;;;;;14.95;5.40;;;;;;;;;;4970134;28;20019;-76
2022/11/07 11:25:50;;;;;;;31.73;5.60;;;;;;;;;;4965500;28;20033;-76
2022/11/07 11:28:35;;;;;;;19.50;6.38;;;;;;;;;;4967290;28;20209;-75
2022/11/07 11:31:10;;;;;;;18.85;5.35;;;;;;;;;;4966395;28;20027;-77
2022/11/07 11:33:56;;;;;;;16.83;5.78;;;;;;;;;;4981719;28;20023;-74
2022/11/07 11:36:24;;;;;;;16.08;5.00;;;;;;;;;;4961733;28;20041;-75
2022/11/07 11:38:54;;;;;;;17.45;4.88;;;;;;;;;;4980320;28;20405;-76
2022/11/07 11:41:24;;;;;;;14.80;4.28;;;;;;;;;;4961898;28;20027;-76
2022/11/07 11:44:11;;;;;;;15.13;4.45;;;;;;;;;;4961790;28;20025;-75
2022/11/07 11:46:39;;;;;;;17.35;5.07;;;;;;;;;;4977925;28;20179;-75
2022/11/07 11:49:11;;;;;;;21.40;6.20;;;;;;;;;;4964909;28;20464;-76
2022/11/07 11:51:45;;;;;;;18.17;5.28;;;;;;;;;;4964861;28;20031;-74
2022/11/07 11:54:13;;;;;;;16.83;6.10;;;;;;;;;;4978608;28;20743;-74
2022/11/07 11:56:46;;;;;;;19.60;6.78;;;;;;;;;;4964154;28;20042;-73
2022/11/07 11:59:30;;;;;;;16.05;5.03;;;;;;;;;;4964769;28;20042;-75
2022/11/07 12:02:02;;;;;;;22.70;5.63;;;;;;;;;;4966744;28;20027;-76
2022/11/07 12:04:45;;;;;;;19.65;5.68;;;;;;;;;;4979267;28;20357;-76
2022/11/07 12:07:17;;;;;;;29.20;6.22;;;;;;;;;;4967130;28;20037;-75
2022/11/07 12:10:02;;;;;;;16.40;5.70;;;;;;;;;;4976483;28;20055;-77
2022/11/07 12:12:37;;;;;;;17.60;5.47;;;;;;;;;;4964023;28;20611;-76
2022/11/07 12:15:22;;;;;;;42.58;7.28;;;;;;;;;;4960423;28;20035;-74
2022/11/07 12:18:02;;;;;;;18.50;5.13;;;;;;;;;;4976679;28;20061;-75
2022/11/07 12:20:45;;;;;;;16.05;5.90;;;;;;;;;;4964115;28;20038;-75
2022/11/07 12:23:18;;;;;;;21.92;5.00;;;;;;;;;;4978109;28;20543;-76
2022/11/07 12:25:50;;;;;;;19.58;6.10;;;;;;;;;;4963135;28;20038;-78
2022/11/07 12:28:16;;;;;;;19.65;5.45;;;;;;;;;;4979162;28;20407;-75
2022/11/07 12:31:15;;;;;;;18.48;4.80;;;;;;;;;;4981904;28;20058;-76
2022/11/07 12:33:44;;;;;;;13.95;3.92;;;;;;;;;;4966698;28;20556;-77
2022/11/07 12:36:20;;;;;;;13.48;5.13;;;;;;;;;;4968640;28;20030;-77
2022/11/07 12:38:56;;;;;;;18.73;5.53;;;;;;;;;;4965829;28;20042;-76
2022/11/07 12:41:31;;;;;;;12.75;5.07;;;;;;;;;;4968090;28;20035;-76
2022/11/07 12:43:57;;;;;;;;;;;;;;;;;;4982299;28;20702;-74
2022/11/07 12:46:30;;;;;;;14.55;4.03;;;;;;;;;;4967471;28;19926;-75
2022/11/07 12:49:04;;;;;;;14.05;4.45;;;;;;;;;;4983164;28;20022;-76
2022/11/07 12:51:49;;;;;;;13.05;4.60;;;;;;;;;;4968367;28;20137;-78
2022/11/07 12:54:18;;;;;;;21.42;4.50;;;;;;;;;;4966984;28;20037;-76
2022/11/07 12:56:45;;;;;;;15.30;3.95;;;;;;;;;;4965680;28;20041;-75
2022/11/07 12:59:19;;;;;;;13.77;4.43;;;;;;;;;;4968084;28;20094;-74
2022/11/07 13:01:54;;;;;;;12.85;4.38;;;;;;;;;;4967012;28;20827;-75
2022/11/07 13:04:26;;;;;;;8.50;3.97;;;;;;;;;;4967266;28;20601;-74
2022/11/07 13:06:57;;;;;;;13.73;3.83;;;;;;;;;;4980846;28;20045;-76
2022/11/07 13:09:35;;;;;;;12.95;3.95;;;;;;;;;;4968503;28;20484;-74
2022/11/07 13:12:20;;;;;;;11.57;3.50;;;;;;;;;;4982672;28;20096;-75
2022/11/07 13:14:46;;;;;;;11.75;3.72;;;;;;;;;;4969640;28;20495;-75
2022/11/07 13:17:15;;;;;;;11.85;3.10;;;;;;;;;;4964604;28;20876;-75
2022/11/07 13:19:45;;;;;;;17.05;4.53;;;;;;;;;;4967517;28;20222;-77
2022/11/07 13:22:17;;;;;;;16.60;4.60;;;;;;;;;;4969173;28;20455;-75
2022/11/07 13:25:09;;;;;;;16.15;4.40;;;;;;;;;;4967470;28;20027;-77
2022/11/07 13:27:36;;;;;;;13.60;3.63;;;;;;;;;;4976657;28;20042;-76
2022/11/07 13:30:11;;;;;;;12.00;4.03;;;;;;;;;;4965581;28;20273;-78
2022/11/07 13:32:48;;;;;;;13.82;4.40;;;;;;;;;;4970179;28;20066;-75
2022/11/07 13:35:33;;;;;;;19.17;4.72;;;;;;;;;;4966789;28;20038;-76
2022/11/07 13:38:01;;;;;;;18.90;4.95;;;;;;;;;;4983956;28;20019;-76
2022/11/07 13:40:30;;;;;;;19.77;5.13;;;;;;;;;;4981591;28;20081;-77
2022/11/07 13:43:16;;;;;;;19.50;4.82;;;;;;;;;;4968027;28;20069;-74
2022/11/07 13:45:47;;;;;;;16.98;5.03;;;;;;;;;;4966820;28;20034;-74
2022/11/07 13:48:25;;;;;;;14.02;4.82;;;;;;;;;;4983026;28;20029;-77
2022/11/07 13:50:57;;;;;;;14.85;5.10;;;;;;;;;;4971417;28;20464;-77
2022/11/07 13:53:26;;;;;;;17.77;6.43;;;;;;;;;;4965703;28;20480;-74
2022/11/07 13:55:57;;;;;;;13.82;4.40;;;;;;;;;;4969538;28;20067;-75
2022/11/07 13:58:24;;;;;;;27.95;6.15;;;;;;;;;;4968464;28;20037;-75
2022/11/07 14:00:50;;;;;;;14.00;5.10;;;;;;;;;;4967605;28;20031;-75
2022/11/07 14:03:25;;;;;;;9.63;3.70;;;;;;;;;;4982311;28;20027;-79
2022/11/07 14:05:51;;;;;;;14.35;4.95;;;;;;;;;;4967804;28;20030;-76
2022/11/07 14:08:38;;;;;;;15.55;4.03;;;;;;;;;;4967867;28;20062;-79
2022/11/07 14:11:13;;;;;;;16.15;4.38;;;;;;;;;;4968265;28;20047;-74
2022/11/07 14:13:39;;;;;;;16.30;4.72;;;;;;;;;;4968361;28;20034;-76
2022/11/07 14:16:22;;;;;;;14.95;4.15;;;;;;;;;;4965520;28;20099;-76
2022/11/07 14:18:51;;;;;;;13.85;4.80;;;;;;;;;;4981310;28;20085;-76
2022/11/07 14:21:22;;;;;;;14.40;4.35;;;;;;;;;;4981517;28;20030;-75
2022/11/07 14:23:48;;;;;;;15.20;4.57;;;;;;;;;;4970284;28;20689;-79
2022/11/07 14:26:19;;;;;;;17.40;4.88;;;;;;;;;;4968374;28;20026;-76
2022/11/07 14:28:46;;;;;;;15.52;4.57;;;;;;;;;;4967933;28;20051;-76
2022/11/07 14:31:18;;;;;;;14.43;4.15;;;;;;;;;;4979858;28;20035;-77
2022/11/07 14:33:52;;;;;;;19.67;5.65;;;;;;;;;;4981137;28;20439;-74
2022/11/07 14:36:19;;;;;;;10.33;4.03;;;;;;;;;;4967157;28;20038;-78
2022/11/07 14:38:46;;;;;;;13.95;4.97;;;;;;;;;;4967139;28;20042;-76
2022/11/07 14:41:13;;;;;;;13.68;4.65;;;;;;;;;;4967126;28;20030;-76
2022/11/07 14:43:39;;;;;;;27.70;5.50;;;;;;;;;;4967830;28;20039;-76
2022/11/07 14:46:07;;;;;;;18.25;4.82;;;;;;;;;;4968082;28;20038;-74
2022/11/07 14:48:34;;;;;;;20.23;5.55;;;;;;;;;;4966884;28;20026;-78
2022/11/07 14:51:01;;;;;;;14.38;5.20;;;;;;;;;;4968533;28;20504;-77